createdAt,value
2023-05-05T00:02:23.223Z,98638.09
2023-05-05T00:04:49.600Z,98630.53
2023-05-05T00:07:15.982Z,98632.16
2023-05-05T00:09:42.976Z,98630.94
2023-05-05T00:12:09.351Z,98626.38
2023-05-05T00:14:35.684Z,98630.81
2023-05-05T00:17:02.124Z,98634.81
2023-05-05T00:19:28.517Z,98623.13
2023-05-05T00:21:54.865Z,98618.59
2023-05-05T00:24:21.198Z,98621.50
2023-05-05T00:26:47.635Z,98622.53
2023-05-05T00:29:14.047Z,98618.97
2023-05-05T00:31:40.661Z,98611.75
2023-05-05T00:34:07.108Z,98609.56
2023-05-05T00:36:33.516Z,98610.16
2023-05-05T00:38:59.897Z,98605.56
2023-05-05T00:41:26.725Z,98604.88
2023-05-05T00:43:53.159Z,98600.34
2023-05-05T00:46:24.607Z,98591.88
2023-05-05T00:48:51.578Z,98595.53
2023-05-05T00:51:19.882Z,98589.13
2023-05-05T00:53:47.075Z,98591.06
2023-05-05T00:56:14.458Z,98588.25
2023-05-05T00:58:41.574Z,98584.09
2023-05-05T01:01:07.987Z,98585.13
2023-05-05T01:03:37.400Z,98587.56
2023-05-05T01:06:25.388Z,98579.44
2023-05-05T01:09:02.048Z,98579.31
2023-05-05T01:11:39.291Z,98587.50
2023-05-05T01:14:32.599Z,98585.25
2023-05-05T01:17:00.233Z,98587.00
2023-05-05T01:19:48.968Z,98592.00
2023-05-05T01:22:19.959Z,98589.22
2023-05-05T01:25:01.381Z,98583.22
2023-05-05T01:27:53.035Z,98586.06
2023-05-05T01:30:25.324Z,98582.50
2023-05-05T01:32:56.721Z,98588.59
2023-05-05T01:35:29.897Z,98590.94
2023-05-05T01:38:05.586Z,98586.06
2023-05-05T01:40:37.714Z,98591.00
2023-05-05T01:43:07.427Z,98588.03
2023-05-05T01:45:36.730Z,98595.63
2023-05-05T01:48:06.291Z,98585.75
2023-05-05T01:50:33.800Z,98593.22
2023-05-05T01:53:02.431Z,98590.56
2023-05-05T01:55:30.585Z,98596.19
2023-05-05T01:57:58.726Z,98603.59
2023-05-05T02:00:27.011Z,98602.88
2023-05-05T02:02:56.757Z,98596.06
2023-05-05T02:05:24.684Z,98597.81
2023-05-05T02:07:54.779Z,98587.28
2023-05-05T02:10:21.495Z,98594.88
2023-05-05T02:12:48.847Z,98589.34
2023-05-05T02:15:16.572Z,98584.19
2023-05-05T02:17:43.409Z,98574.91
2023-05-05T02:20:13.951Z,98583.69
2023-05-05T02:22:41.014Z,98581.75
2023-05-05T02:25:08.672Z,98571.22
2023-05-05T02:27:35.667Z,98571.03
2023-05-05T02:30:08.703Z,98565.53
2023-05-05T02:32:39.799Z,98564.50
2023-05-05T02:35:20.908Z,98562.41
2023-05-05T02:37:51.376Z,98565.63
2023-05-05T02:40:22.398Z,98570.97
2023-05-05T02:42:50.337Z,98562.63
2023-05-05T02:45:19.890Z,98561.59
2023-05-05T02:47:46.237Z,98562.78
2023-05-05T02:50:12.722Z,98564.09
2023-05-05T02:52:39.629Z,98558.03
2023-05-05T02:55:06.596Z,98557.94
2023-05-05T02:57:35.896Z,98555.06
2023-05-05T03:00:36.915Z,98554.97
2023-05-05T03:03:16.581Z,98558.97
2023-05-05T03:05:55.672Z,98556.56
2023-05-05T03:08:43.615Z,98568.59
2023-05-05T03:11:52.262Z,98562.03
2023-05-05T03:14:21.364Z,98567.25
2023-05-05T03:16:49.295Z,98562.78
2023-05-05T03:19:20.190Z,98563.34
2023-05-05T03:21:47.715Z,98566.97
2023-05-05T03:24:18.601Z,98557.25
2023-05-05T03:26:46.520Z,98567.81
2023-05-05T03:29:13.922Z,98564.53
2023-05-05T03:31:41.065Z,98563.81
2023-05-05T03:34:07.952Z,98563.16
2023-05-05T03:36:35.356Z,98571.22
2023-05-05T03:39:01.754Z,98568.81
2023-05-05T03:41:28.414Z,98572.81
2023-05-05T03:43:54.779Z,98571.56
2023-05-05T03:46:21.305Z,98571.25
2023-05-05T03:48:48.496Z,98569.47
2023-05-05T03:51:15.014Z,98577.16
2023-05-05T03:53:41.570Z,98570.59
2023-05-05T03:56:08.078Z,98573.34
2023-05-05T03:58:34.445Z,98572.06
2023-05-05T04:01:00.825Z,98567.00
2023-05-05T04:03:27.418Z,98568.41
2023-05-05T04:05:53.892Z,98572.97
2023-05-05T04:08:20.307Z,98583.28
2023-05-05T04:10:46.669Z,98583.44
2023-05-05T04:13:13.123Z,98580.66
2023-05-05T04:15:44.581Z,98581.47
2023-05-05T04:18:11.283Z,98575.28
2023-05-05T04:20:37.751Z,98578.78
2023-05-05T04:23:04.362Z,98579.47
2023-05-05T04:25:30.762Z,98578.19
2023-05-05T04:27:57.140Z,98577.22
2023-05-05T04:30:23.508Z,98583.22
2023-05-05T04:32:49.946Z,98580.81
2023-05-05T04:35:16.475Z,98584.44
2023-05-05T04:37:42.796Z,98580.44
2023-05-05T04:40:09.784Z,98593.25
2023-05-05T04:42:36.609Z,98591.81
2023-05-05T04:45:03.131Z,98590.56
2023-05-05T04:47:29.471Z,98581.97
2023-05-05T04:49:56.058Z,98587.06
2023-05-05T04:52:22.428Z,98587.06
2023-05-05T04:54:48.789Z,98590.16
2023-05-05T04:57:15.163Z,98577.97
2023-05-05T04:59:41.515Z,98589.59
2023-05-05T05:02:07.923Z,98593.63
2023-05-05T05:04:34.309Z,98598.41
2023-05-05T05:07:01.498Z,98588.31
2023-05-05T05:09:27.865Z,98593.47
2023-05-05T05:11:54.211Z,98588.84
2023-05-05T05:14:20.652Z,98590.81
2023-05-05T05:16:51.038Z,98593.06
2023-05-05T05:19:17.596Z,98592.56
2023-05-05T05:21:43.956Z,98595.53
2023-05-05T05:24:11.507Z,98592.56
2023-05-05T05:26:38.214Z,98600.84
2023-05-05T05:29:04.813Z,98591.34
2023-05-05T05:31:31.221Z,98587.75
2023-05-05T05:33:57.573Z,98596.03
2023-05-05T05:36:23.974Z,98593.09
2023-05-05T05:38:50.320Z,98594.72
2023-05-05T05:41:17.467Z,98598.53
2023-05-05T05:43:43.817Z,98594.53
2023-05-05T05:46:10.576Z,98591.25
2023-05-05T05:48:36.982Z,98593.63
2023-05-05T05:51:03.557Z,98591.69
2023-05-05T05:53:29.915Z,98593.38
2023-05-05T05:55:56.287Z,98596.56
2023-05-05T05:58:22.763Z,98598.19
2023-05-05T06:00:49.596Z,98598.16
2023-05-05T06:03:16.264Z,98595.56
2023-05-05T06:05:42.756Z,98596.22
2023-05-05T06:08:09.194Z,98592.78
2023-05-05T06:10:35.651Z,98593.16
2023-05-05T06:13:02.106Z,98591.97
2023-05-05T06:15:28.557Z,98594.69
2023-05-05T06:17:54.990Z,98600.44
2023-05-05T06:20:21.399Z,98594.72
2023-05-05T06:22:47.829Z,98591.03
2023-05-05T06:25:14.234Z,98594.31
2023-05-05T06:27:40.702Z,98587.06
2023-05-05T06:30:07.776Z,98583.50
2023-05-05T06:32:34.594Z,98589.81
2023-05-05T06:35:01.021Z,98588.13
2023-05-05T06:37:27.581Z,98581.16
2023-05-05T06:39:54.033Z,98582.75
2023-05-05T06:42:20.384Z,98580.50
2023-05-05T06:44:47.026Z,98587.13
2023-05-05T06:47:13.404Z,98584.81
2023-05-05T06:49:39.913Z,98588.13
2023-05-05T06:52:08.234Z,98582.28
2023-05-05T06:54:34.664Z,98580.47
2023-05-05T06:57:01.169Z,98581.91
2023-05-05T06:59:27.680Z,98583.88
2023-05-05T07:01:54.254Z,98583.97
2023-05-05T07:04:21.385Z,98578.03
2023-05-05T07:06:47.843Z,98571.38
2023-05-05T07:09:15.748Z,98580.13
2023-05-05T07:11:43.395Z,98580.25
2023-05-05T07:14:09.768Z,98582.59
2023-05-05T07:16:37.257Z,98575.25
2023-05-05T07:19:06.156Z,98577.66
2023-05-05T07:21:34.313Z,98581.88
2023-05-05T07:24:01.380Z,98582.69
2023-05-05T07:26:27.919Z,98577.38
2023-05-05T07:28:57.240Z,98577.78
2023-05-05T07:31:23.783Z,98573.41
2023-05-05T07:33:50.336Z,98566.69
2023-05-05T07:36:19.801Z,98570.88
2023-05-05T07:38:46.365Z,98579.19
2023-05-05T07:41:13.037Z,98575.34
2023-05-05T07:43:44.530Z,98585.84
2023-05-05T07:46:11.519Z,98593.69
2023-05-05T07:48:39.132Z,98577.69
2023-05-05T07:51:05.645Z,98578.78
2023-05-05T07:53:32.560Z,98580.13
2023-05-05T07:55:59.124Z,98575.09
2023-05-05T07:58:25.841Z,98574.34
2023-05-05T08:00:52.370Z,98583.00
2023-05-05T08:03:21.636Z,98588.47
2023-05-05T08:05:50.555Z,98574.69
2023-05-05T08:08:18.214Z,98572.63
2023-05-05T08:10:44.725Z,98582.41
2023-05-05T08:13:11.185Z,98574.72
2023-05-05T08:15:37.700Z,98579.41
2023-05-05T08:18:04.276Z,98566.44
2023-05-05T08:20:30.959Z,98580.06
2023-05-05T08:22:57.433Z,98578.94
2023-05-05T08:25:24.544Z,98576.88
2023-05-05T08:27:51.050Z,98567.69
2023-05-05T08:30:20.733Z,98560.94
2023-05-05T08:32:47.255Z,98565.81
2023-05-05T08:35:13.921Z,98573.19
2023-05-05T08:37:40.485Z,98571.59
2023-05-05T08:40:07.597Z,98569.16
2023-05-05T08:42:38.678Z,98570.06
2023-05-05T08:45:07.148Z,98565.16
2023-05-05T08:47:34.863Z,98569.88
2023-05-05T08:50:01.959Z,98570.13
2023-05-05T08:52:31.684Z,98568.47
2023-05-05T08:55:05.390Z,98573.97
2023-05-05T08:57:46.260Z,98562.84
2023-05-05T09:00:13.209Z,98562.47
2023-05-05T09:02:42.848Z,98566.47
2023-05-05T09:05:10.016Z,98552.91
2023-05-05T09:07:37.577Z,98554.34
2023-05-05T09:10:05.006Z,98552.13
2023-05-05T09:12:31.858Z,98544.09
2023-05-05T09:15:04.713Z,98547.69
2023-05-05T09:17:31.704Z,98548.31
2023-05-05T09:20:11.655Z,98553.66
2023-05-05T09:22:43.588Z,98547.22
2023-05-05T09:25:12.187Z,98550.47
2023-05-05T09:27:43.455Z,98559.88
2023-05-05T09:30:15.130Z,98554.13
2023-05-05T09:32:49.587Z,98554.91
2023-05-05T09:35:17.366Z,98540.53
2023-05-05T09:37:44.296Z,98549.44
2023-05-05T09:40:12.836Z,98546.13
2023-05-05T09:42:40.174Z,98555.44
2023-05-05T09:45:18.534Z,98556.34
2023-05-05T09:47:48.957Z,98554.69
2023-05-05T09:50:18.877Z,98561.97
2023-05-05T09:52:57.212Z,98551.41
2023-05-05T09:55:24.734Z,98549.63
2023-05-05T09:57:51.659Z,98559.06
2023-05-05T10:00:18.453Z,98565.38
2023-05-05T10:02:45.369Z,98565.38
2023-05-05T10:05:13.672Z,98567.97
2023-05-05T10:07:42.460Z,98554.56
2023-05-05T10:10:16.786Z,98559.31
2023-05-05T10:12:46.447Z,98553.59
2023-05-05T10:15:15.600Z,98550.69
2023-05-05T10:20:19.066Z,98537.00
2023-05-05T10:22:52.582Z,98538.28
2023-05-05T10:25:28.584Z,98525.78
2023-05-05T10:27:58.807Z,98529.84
2023-05-05T10:30:32.743Z,98526.84
2023-05-05T10:33:31.164Z,98527.13
2023-05-05T10:36:02.437Z,98521.19
2023-05-05T10:38:30.714Z,98524.44
2023-05-05T10:40:59.083Z,98521.06
2023-05-05T10:43:26.730Z,98514.69
2023-05-05T10:45:54.145Z,98518.72
2023-05-05T10:48:36.014Z,98515.94
2023-05-05T10:51:12.019Z,98511.72
2023-05-05T10:53:51.514Z,98511.25
2023-05-05T10:56:26.604Z,98507.94
2023-05-05T10:58:59.639Z,98501.72
2023-05-05T11:01:34.654Z,98501.41
2023-05-05T11:04:23.774Z,98503.41
2023-05-05T11:07:10.286Z,98501.72
2023-05-05T11:09:55.063Z,98499.97
2023-05-05T11:12:21.583Z,98496.97
2023-05-05T11:14:47.991Z,98484.63
2023-05-05T11:17:44.116Z,98493.84
2023-05-05T11:20:10.631Z,98491.56
2023-05-05T11:23:05.404Z,98479.34
2023-05-05T11:25:34.715Z,98483.06
2023-05-05T11:28:08.534Z,98477.63
2023-05-05T11:30:36.692Z,98481.75
2023-05-05T11:33:29.051Z,98486.06
2023-05-05T11:35:59.364Z,98470.19
2023-05-05T11:38:58.623Z,98471.34
2023-05-05T11:41:34.119Z,98472.31
2023-05-05T11:44:16.636Z,98469.13
2023-05-05T11:46:52.116Z,98467.91
2023-05-05T11:49:29.185Z,98466.88
2023-05-05T11:52:06.060Z,98469.47
2023-05-05T11:54:32.758Z,98457.63
2023-05-05T11:57:07.249Z,98452.97
2023-05-05T11:59:36.408Z,98466.78
2023-05-05T12:02:04.224Z,98465.41
2023-05-05T12:04:31.510Z,98466.59
2023-05-05T12:06:58.625Z,98463.19
2023-05-05T12:09:25.041Z,98462.56
2023-05-05T12:11:58.489Z,98460.97
2023-05-05T12:14:25.588Z,98449.97
2023-05-05T12:17:01.492Z,98455.34
2023-05-05T12:19:33.328Z,98450.22
2023-05-05T12:22:01.323Z,98446.81
2023-05-05T12:24:27.983Z,98446.31
2023-05-05T12:26:54.461Z,98450.88
2023-05-05T12:29:25.270Z,98431.09
2023-05-05T12:31:51.849Z,98453.00
2023-05-05T12:34:18.750Z,98434.84
2023-05-05T12:36:45.359Z,98438.19
2023-05-05T12:39:12.258Z,98434.22
2023-05-05T12:41:39.013Z,98430.19
2023-05-05T12:44:05.484Z,98425.66
2023-05-05T12:46:44.675Z,98434.81
2023-05-05T12:49:11.475Z,98424.19
2023-05-05T12:51:38.311Z,98413.72
2023-05-05T12:54:09.527Z,98407.81
2023-05-05T12:56:39.734Z,98410.56
2023-05-05T12:59:07.994Z,98414.22
2023-05-05T13:01:36.042Z,98408.84
2023-05-05T13:04:11.155Z,98403.88
2023-05-05T13:06:39.177Z,98407.59
2023-05-05T13:09:06.621Z,98410.53
2023-05-05T13:11:37.361Z,98411.53
2023-05-05T13:14:04.189Z,98414.13
2023-05-05T13:16:30.996Z,98397.44
2023-05-05T13:18:57.869Z,98393.56
2023-05-05T13:21:24.443Z,98392.72
2023-05-05T13:23:50.855Z,98402.00
2023-05-05T13:26:17.217Z,98391.66
2023-05-05T13:28:43.558Z,98394.84
2023-05-05T13:31:09.960Z,98391.13
2023-05-05T13:33:36.410Z,98386.13
2023-05-05T13:36:03.368Z,98382.06
2023-05-05T13:38:32.118Z,98374.25
2023-05-05T13:40:59.402Z,98369.00
2023-05-05T13:43:26.145Z,98360.22
2023-05-05T13:45:53.599Z,98364.03
2023-05-05T13:48:20.172Z,98356.84
2023-05-05T13:50:47.188Z,98354.63
2023-05-05T13:53:13.941Z,98356.31
2023-05-05T13:55:41.990Z,98354.50
2023-05-05T13:58:08.546Z,98350.44
2023-05-05T14:00:35.735Z,98349.94
2023-05-05T14:03:02.038Z,98346.69
2023-05-05T14:05:28.476Z,98344.19
2023-05-05T14:07:55.314Z,98337.97
2023-05-05T14:10:21.810Z,98338.88
2023-05-05T14:12:48.467Z,98330.34
2023-05-05T14:15:14.895Z,98333.00
2023-05-05T14:17:41.300Z,98326.91
2023-05-05T14:20:08.060Z,98330.59
2023-05-05T14:22:34.395Z,98324.09
2023-05-05T14:25:01.131Z,98323.25
2023-05-05T14:27:27.532Z,98331.28
2023-05-05T14:29:54.227Z,98328.97
2023-05-05T14:32:20.700Z,98332.94
2023-05-05T14:34:49.002Z,98328.50
2023-05-05T14:37:16.890Z,98329.09
2023-05-05T14:39:43.280Z,98325.25
2023-05-05T14:42:09.605Z,98325.69
2023-05-05T14:44:36.155Z,98328.44
2023-05-05T14:47:02.603Z,98322.91
2023-05-05T14:49:28.983Z,98323.19
2023-05-05T14:51:56.794Z,98326.28
2023-05-05T14:54:28.308Z,98324.88
2023-05-05T14:56:55.269Z,98320.75
2023-05-05T14:59:21.778Z,98321.22
2023-05-05T15:01:48.316Z,98321.19
2023-05-05T15:04:14.763Z,98321.59
2023-05-05T15:06:41.151Z,98316.44
2023-05-05T15:09:07.574Z,98310.72
2023-05-05T15:11:33.960Z,98305.72
2023-05-05T15:14:00.346Z,98312.59
2023-05-05T15:16:26.771Z,98309.78
2023-05-05T15:18:53.298Z,98300.50
2023-05-05T15:21:19.689Z,98300.66
2023-05-05T15:23:46.049Z,98297.88
2023-05-05T15:26:12.530Z,98293.47
2023-05-05T15:28:38.891Z,98313.41
2023-05-05T15:31:06.332Z,98298.97
2023-05-05T15:33:33.472Z,98299.56
2023-05-05T15:36:00.412Z,98296.06
2023-05-05T15:38:28.960Z,98297.94
2023-05-05T15:40:55.434Z,98301.25
2023-05-05T15:43:21.806Z,98297.72
2023-05-05T15:45:48.174Z,98298.47
2023-05-05T15:48:14.520Z,98293.59
2023-05-05T15:50:40.886Z,98282.56
2023-05-05T15:53:07.299Z,98285.78
2023-05-05T15:55:34.035Z,98274.91
2023-05-05T15:58:00.391Z,98280.63
2023-05-05T16:00:26.809Z,98281.81
2023-05-05T16:02:53.200Z,98283.25
2023-05-05T16:05:22.115Z,98282.91
2023-05-05T16:07:49.281Z,98288.22
2023-05-05T16:10:16.807Z,98285.56
2023-05-05T16:12:43.178Z,98289.75
2023-05-05T16:15:10.359Z,98280.38
2023-05-05T16:17:37.112Z,98286.50
2023-05-05T16:20:03.961Z,98283.72
2023-05-05T16:22:30.543Z,98288.97
2023-05-05T16:24:56.902Z,98276.06
2023-05-05T16:27:23.274Z,98280.34
2023-05-05T16:29:49.634Z,98281.00
2023-05-05T16:32:15.977Z,98284.22
2023-05-05T16:34:42.362Z,98285.56
2023-05-05T16:37:08.721Z,98287.91
2023-05-05T16:39:39.963Z,98284.06
2023-05-05T16:42:06.463Z,98289.59
2023-05-05T16:44:32.826Z,98289.59
2023-05-05T16:46:59.183Z,98281.88
2023-05-05T16:49:26.010Z,98286.94
2023-05-05T16:51:53.437Z,98285.88
2023-05-05T16:54:19.835Z,98282.97
2023-05-05T16:56:46.182Z,98283.91
2023-05-05T16:59:13.084Z,98287.06
2023-05-05T17:01:39.562Z,98284.28
2023-05-05T17:04:05.962Z,98291.84
2023-05-05T17:06:33.095Z,98290.25
2023-05-05T17:08:59.867Z,98277.31
2023-05-05T17:11:26.671Z,98288.47
2023-05-05T17:13:53.015Z,98292.31
2023-05-05T17:16:19.402Z,98287.63
2023-05-05T17:18:45.772Z,98288.56
2023-05-05T17:21:12.111Z,98287.94
2023-05-05T17:23:38.456Z,98299.28
2023-05-05T17:26:05.305Z,98291.03
2023-05-05T17:28:31.859Z,98293.28
2023-05-05T17:30:59.935Z,98290.84
2023-05-05T17:33:26.361Z,98295.25
2023-05-05T17:35:52.941Z,98299.91
2023-05-05T17:38:19.353Z,98291.16
2023-05-05T17:40:45.758Z,98296.75
2023-05-05T17:43:12.166Z,98304.38
2023-05-05T17:45:38.718Z,98291.09
2023-05-05T17:48:05.493Z,98283.88
2023-05-05T17:50:31.914Z,98280.31
2023-05-05T17:52:58.286Z,98281.94
2023-05-05T17:55:24.646Z,98287.75
2023-05-05T17:57:51.025Z,98274.94
2023-05-05T18:00:18.249Z,98281.72
2023-05-05T18:02:44.767Z,98277.38
2023-05-05T18:05:11.392Z,98276.00
2023-05-05T18:07:38.628Z,98278.25
2023-05-05T18:10:07.127Z,98275.06
2023-05-05T18:12:33.662Z,98285.78
2023-05-05T18:15:01.597Z,98277.44
2023-05-05T18:17:27.973Z,98276.03
2023-05-05T18:19:54.528Z,98273.50
2023-05-05T18:22:21.791Z,98277.56
2023-05-05T18:24:48.259Z,98278.38
2023-05-05T18:27:14.714Z,98273.63
2023-05-05T18:29:41.128Z,98272.56
2023-05-05T18:32:07.536Z,98275.25
2023-05-05T18:34:34.371Z,98275.25
2023-05-05T18:37:00.784Z,98278.19
2023-05-05T18:39:27.189Z,98278.19
2023-05-05T18:41:53.646Z,98277.63
2023-05-05T18:44:20.294Z,98290.88
2023-05-05T18:46:49.728Z,98289.41
2023-05-05T18:49:16.440Z,98285.31
2023-05-05T18:51:43.457Z,98285.63
2023-05-05T18:54:10.188Z,98289.09
2023-05-05T18:56:36.794Z,98277.25
2023-05-05T18:59:03.327Z,98279.16
2023-05-05T19:01:29.727Z,98278.03
2023-05-05T19:03:56.168Z,98270.03
2023-05-05T19:06:22.594Z,98273.75
2023-05-05T19:08:49.090Z,98275.97
2023-05-05T19:11:15.599Z,98278.47
2023-05-05T19:13:42.049Z,98271.59
2023-05-05T19:16:08.575Z,98269.78
2023-05-05T19:18:35.003Z,98270.50
2023-05-05T19:21:01.644Z,98274.16
2023-05-05T19:23:28.068Z,98275.59
2023-05-05T19:25:54.505Z,98278.31
2023-05-05T19:28:21.399Z,98279.38
2023-05-05T19:30:49.168Z,98276.44
2023-05-05T19:33:16.213Z,98273.50
2023-05-05T19:35:43.719Z,98272.41
2023-05-05T19:38:10.853Z,98277.28
2023-05-05T19:40:38.907Z,98271.38
2023-05-05T19:43:05.571Z,98278.38
2023-05-05T19:45:33.539Z,98270.72
2023-05-05T19:48:01.409Z,98270.72
2023-05-05T19:50:29.831Z,98275.94
2023-05-05T19:52:56.427Z,98271.53
2023-05-05T19:55:22.947Z,98277.00
2023-05-05T19:57:49.336Z,98274.88
2023-05-05T20:00:16.122Z,98267.22
2023-05-05T20:02:42.810Z,98268.69
2023-05-05T20:05:11.489Z,98273.44
2023-05-05T20:07:37.894Z,98278.22
2023-05-05T20:10:04.639Z,98279.00
2023-05-05T20:12:31.207Z,98276.41
2023-05-05T20:14:57.620Z,98268.00
2023-05-05T20:17:25.683Z,98269.53
2023-05-05T20:19:52.368Z,98271.41
2023-05-05T20:22:18.881Z,98265.53
2023-05-05T20:24:45.279Z,98259.25
2023-05-05T20:27:11.669Z,98260.72
2023-05-05T20:29:38.129Z,98262.59
2023-05-05T20:32:06.177Z,98268.50
2023-05-05T20:34:32.560Z,98260.13
2023-05-05T20:36:59.155Z,98255.72
2023-05-05T20:39:25.921Z,98259.41
2023-05-05T20:41:52.359Z,98259.06
2023-05-05T20:44:18.782Z,98256.13
2023-05-05T20:46:45.255Z,98264.94
2023-05-05T20:49:11.722Z,98255.84
2023-05-05T20:51:38.088Z,98259.53
2023-05-05T20:54:04.891Z,98262.06
2023-05-05T20:56:31.300Z,98265.00
2023-05-05T20:58:57.779Z,98263.94
2023-05-05T21:01:24.194Z,98253.66
2023-05-05T21:03:50.638Z,98265.38
2023-05-05T21:06:19.429Z,98270.91
2023-05-05T21:08:47.124Z,98269.44
2023-05-05T21:11:13.575Z,98277.13
2023-05-05T21:13:40.155Z,98271.63
2023-05-05T21:16:06.630Z,98276.78
2023-05-05T21:18:33.080Z,98269.47
2023-05-05T21:20:59.497Z,98268.00
2023-05-05T21:23:26.154Z,98275.31
2023-05-05T21:25:52.581Z,98273.53
2023-05-05T21:28:19.096Z,98266.91
2023-05-05T21:30:54.945Z,98257.78
2023-05-05T21:33:31.322Z,98257.03
2023-05-05T21:35:57.677Z,98257.78
2023-05-05T21:38:24.070Z,98259.59
2023-05-05T21:40:57.249Z,98258.50
2023-05-05T21:43:25.276Z,98264.69
2023-05-05T21:46:05.682Z,98269.09
2023-05-05T21:48:32.616Z,98269.47
2023-05-05T21:50:59.224Z,98265.38
2023-05-05T21:53:25.612Z,98252.91
2023-05-05T21:55:52.048Z,98253.28
2023-05-05T21:58:18.461Z,98247.03
2023-05-05T22:00:45.011Z,98235.31
2023-05-05T22:03:11.539Z,98230.94
2023-05-05T22:05:38.288Z,98225.78
2023-05-05T22:08:04.827Z,98226.88
2023-05-05T22:10:31.316Z,98227.66
2023-05-05T22:12:58.234Z,98230.50
2023-05-05T22:15:27.634Z,98219.50
2023-05-05T22:17:56.526Z,98214.72
2023-05-05T22:20:23.101Z,98211.13
2023-05-05T22:22:49.460Z,98215.88
2023-05-05T22:25:16.206Z,98220.28
2023-05-05T22:27:42.830Z,98224.94
2023-05-05T22:30:09.674Z,98226.06
2023-05-05T22:32:36.016Z,98228.97
2023-05-05T22:35:02.442Z,98234.47
2023-05-05T22:37:28.822Z,98237.38
2023-05-05T22:39:55.203Z,98238.56
2023-05-05T22:42:21.578Z,98243.28
2023-05-05T22:44:47.948Z,98246.94
2023-05-05T22:47:14.377Z,98245.13
2023-05-05T22:49:40.859Z,98237.81
2023-05-05T22:52:07.489Z,98237.69
2023-05-05T22:54:33.880Z,98239.56
2023-05-05T22:57:00.258Z,98239.16
2023-05-05T22:59:26.609Z,98245.72
2023-05-05T23:01:52.989Z,98254.13
2023-05-05T23:04:19.386Z,98253.38
2023-05-05T23:06:46.041Z,98253.34
2023-05-05T23:09:12.801Z,98253.00
2023-05-05T23:11:39.222Z,98255.88
2023-05-05T23:14:05.801Z,98264.66
2023-05-05T23:16:32.171Z,98263.56
2023-05-05T23:18:58.556Z,98263.03
2023-05-05T23:21:24.900Z,98263.06
2023-05-05T23:23:51.314Z,98262.34
2023-05-05T23:26:17.685Z,98261.53
2023-05-05T23:28:44.075Z,98259.75
2023-05-05T23:31:10.448Z,98271.81
2023-05-05T23:33:36.885Z,98289.75
2023-05-05T23:36:03.909Z,98294.09
2023-05-05T23:38:30.540Z,98300.53
2023-05-05T23:40:56.900Z,98287.59
2023-05-05T23:43:23.288Z,98283.97
2023-05-05T23:45:49.708Z,98282.88
2023-05-05T23:48:16.216Z,98285.84
2023-05-05T23:50:42.622Z,98290.09
2023-05-05T23:53:09.523Z,98279.94
2023-05-05T23:55:35.859Z,98277.22
2023-05-05T23:58:02.301Z,98278.84
